Main page
METAR-TAF:

METAR-TAF

Airports :

London Southend Airport

London-Southend, England

latitude: 51-34N, longitude: 000-42E, elevation: 15 m

Current weather observation

The report was made 26 minutes ago, at 02:20 UTC
Wind 11 kt from the West
Temperature 19°C
Humidity 73%
Pressure 1020 hPa
Visibility 10 km or more
Scattered clouds at a height of 1900 ft
Broken clouds at a height of 2800 ft

METAR: EGMC 190220Z 26011KT 9999 SCT019 BKN028 19/14 Q1020

Time: 03:46 (02:46 UTC)

Forecast

The report was made 52 minutes ago, at 01:54 UTC
Forecast valid from 19 at 03 UTC to 19 at 12 UTC
Wind 12 kt from the Southwest
Visibility 10 km or more
Broken clouds at a height of 2000 ft
Probability 30% :
Temporary
from 19 at 03 UTC to 19 at 06 UTC
Broken clouds at a height of 1400 ft

TAF: EGMC 190154Z 1903/1912 23012KT 9999 BKN020 PROB30 TEMPO 1903/1906 BKN014

Weather observations and forecasts of more than 4000 airports (METAR and TAF reports).

The available stations are represented by yellow and red dots on the map.

Hover mouse over dot to see the name of the station.

Then click to see weather observations and forecasts.

To change the map : click on the green buttons with a black cross to zoom in, on the green button with a dash to zoom out, or on the green arrows for adjacent maps.


METAR-TAF: